Time;durP1;ratioP1;P1;durP2;ratioP2;P2;SDS_P1;SDS_P2;PMS_P1;PMS_P2;Temp;Humidity;BMP_temperature;BMP_pressure;BME280_temperature;BME280_humidity;BME280_pressure;Samples;Min_cycle;Max_cycle;Signal;HPM_P1;HPM_P2
2024/03/01 00:00:46;;;;;;;;;5.00;5.00;;;;;9.77;71.31;100473.19;2028469;28;2744373;-77
2024/03/01 00:01:57;;;;;;;;;4.00;4.00;;;;;9.74;70.72;100462.78;2003186;27;2754446;-77
2024/03/01 00:03:09;;;;;;;;;4.33;4.00;;;;;9.79;70.48;100485.34;2059148;27;2750264;-78
2024/03/01 00:04:22;;;;;;;;;5.17;5.17;;;;;9.74;70.68;100478.53;2035199;27;2744035;-78
2024/03/01 00:05:35;;;;;;;;;4.00;3.50;;;;;9.72;71.09;100480.34;2053283;27;2737871;-77
2024/03/01 00:06:48;;;;;;;;;5.83;5.00;;;;;9.65;69.58;100464.81;2037104;27;2748213;-78
2024/03/01 00:08:02;;;;;;;;;3.50;3.00;;;;;9.70;70.77;100469.91;2034737;27;2754419;-77
2024/03/01 00:09:15;;;;;;;;;4.67;4.67;;;;;9.70;70.05;100480.41;2052134;27;2752348;-78
2024/03/01 00:10:28;;;;;;;;;4.50;4.50;;;;;9.65;70.44;100480.56;2034192;27;2739888;-77
2024/03/01 00:11:41;;;;;;;;;4.00;4.00;;;;;9.72;70.59;100493.47;2028260;27;2754442;-77
2024/03/01 00:12:55;;;;;;;;;3.67;3.67;;;;;9.64;70.64;100484.09;2028923;27;2748188;-77
2024/03/01 00:14:08;;;;;;;;;4.83;4.33;;;;;9.66;69.82;100487.53;2052441;28;2749727;-78
2024/03/01 00:15:21;;;;;;;;;4.00;4.00;;;;;9.66;69.75;100498.00;2028935;27;2748170;-77
2024/03/01 00:16:34;;;;;;;;;4.67;4.00;;;;;9.60;70.24;100492.97;2028739;27;2737761;-77
2024/03/01 00:17:47;;;;;;;;;4.50;4.50;;;;;9.63;70.09;100497.28;2051644;27;2737796;-77
2024/03/01 00:19:01;;;;;;;;;3.33;3.33;;;;;9.63;68.89;100495.47;2051476;27;2746091;-78
2024/03/01 00:20:14;;;;;;;;;4.17;3.83;;;;;9.62;69.91;100506.91;2056387;27;2747533;-77
2024/03/01 00:21:27;;;;;;;;;5.00;5.00;;;;;9.57;69.76;100507.06;2036551;27;2746141;-78
2024/03/01 00:22:40;;;;;;;;;3.67;3.67;;;;;9.62;69.88;100521.78;2035788;27;2733619;-77
2024/03/01 00:23:54;;;;;;;;;5.67;4.00;;;;;9.58;70.17;100515.75;2060337;27;2736721;-77
2024/03/01 00:25:10;;;;;;;;;3.83;3.67;;;;;9.57;69.60;100508.81;2045570;28;2737836;-77
2024/03/01 00:26:23;;;;;;;;;5.83;4.00;;;;;9.57;69.65;100519.31;2057708;27;2741924;-77
2024/03/01 00:27:36;;;;;;;;;4.00;4.00;;;;;9.56;70.03;100520.22;2059868;27;2746597;-77
2024/03/01 00:28:50;;;;;;;;;5.83;4.83;;;;;9.62;70.41;100527.91;2059789;27;2743021;-77
2024/03/01 00:30:03;;;;;;;;;4.50;2.50;;;;;9.60;69.19;100526.22;2033364;27;2754932;-76
2024/03/01 00:31:16;;;;;;;;;4.33;3.67;;;;;9.53;69.19;100526.41;2051955;28;2750277;-76
2024/03/01 00:32:32;;;;;;;;;3.00;3.00;;;;;9.54;69.56;100522.03;2022856;27;2754443;-76
2024/03/01 00:33:45;;;;;;;;;3.00;2.83;;;;;9.49;69.30;100524.81;2035334;27;2754474;-76
2024/03/01 00:34:58;;;;;;;;;3.67;3.00;;;;;9.50;69.41;100520.41;2036532;27;2752375;-76
2024/03/01 00:36:11;;;;;;;;;4.67;3.00;;;;;9.48;69.39;100520.47;2035685;27;2750256;-76
2024/03/01 00:37:25;;;;;;;;;4.17;3.17;;;;;9.48;69.60;100517.00;2036199;27;2748176;-76
2024/03/01 00:38:38;;;;;;;;;3.33;3.33;;;;;9.52;70.05;100521.22;2035662;27;2752376;-75
2024/03/01 00:39:51;;;;;;;;;4.17;4.00;;;;;9.61;70.06;100534.03;2027432;28;2746573;-76
2024/03/01 00:41:05;;;;;;;;;3.33;2.67;;;;;9.60;69.40;100529.72;2051380;28;2754446;-77
2024/03/01 00:42:18;;;;;;;;;4.00;4.00;;;;;9.56;69.78;100523.69;2027502;27;2755016;-76
2024/03/01 00:43:33;;;;;;;;;5.33;3.67;;;;;9.64;69.85;100533.94;2029614;27;2745065;-75
2024/03/01 00:44:46;;;;;;;;;2.00;1.00;;;;;9.61;69.48;100530.56;2027723;27;2733602;-76
2024/03/01 00:45:59;;;;;;;;;3.00;3.00;;;;;9.63;69.81;100526.97;2053025;27;2752363;-76
2024/03/01 00:47:13;;;;;;;;;3.00;3.00;;;;;9.71;69.38;100533.72;2035232;27;2741931;-76
2024/03/01 00:48:26;;;;;;;;;3.50;2.50;;;;;9.71;69.69;100531.09;2029882;27;2738834;-76
2024/03/01 00:49:39;;;;;;;;;1.67;1.67;;;;;9.73;69.21;100539.81;2029194;27;2744052;-76
2024/03/01 00:50:53;;;;;;;;;4.00;3.00;;;;;9.71;68.75;100526.72;2050950;27;2742973;-75
2024/03/01 00:52:06;;;;;;;;;3.00;3.00;;;;;9.71;69.52;100534.59;2021915;28;2736763;-76
2024/03/01 00:53:19;;;;;;;;;3.83;3.33;;;;;9.65;69.45;100526.94;2029582;27;2754511;-76
2024/03/01 00:54:32;;;;;;;;;4.50;2.83;;;;;9.72;69.77;100535.47;2034384;27;2750261;-75
2024/03/01 00:55:46;;;;;;;;;3.67;2.00;;;;;9.70;69.52;100530.28;2037532;27;2736731;-75
2024/03/01 00:56:59;;;;;;;;;2.33;2.33;;;;;9.68;68.78;100527.69;2058660;27;2741990;-76
2024/03/01 00:58:12;;;;;;;;;2.17;1.83;;;;;9.74;69.08;100537.13;2055287;27;2741935;-75
2024/03/01 00:59:25;;;;;;;;;4.17;3.00;;;;;9.65;69.32;100522.56;2054105;27;2751314;-75
2024/03/01 01:00:38;;;;;;;;;2.00;2.00;;;;;9.72;68.93;100532.84;2035206;27;2737777;-76
2024/03/01 01:01:52;;;;;;;;;2.00;2.00;;;;;9.68;69.21;100522.44;2051273;27;2733615;-75
2024/03/01 01:03:05;;;;;;;;;2.33;2.00;;;;;9.65;68.76;100517.31;2037884;27;2737821;-76
2024/03/01 01:04:18;;;;;;;;;2.00;1.50;;;;;9.70;69.11;100526.78;2037348;27;2735705;-75
2024/03/01 01:05:31;;;;;;;;;1.00;1.00;;;;;9.61;67.52;100515.66;2030977;27;2731508;-76
2024/03/01 01:06:44;;;;;;;;;2.00;1.00;;;;;9.67;67.83;100536.47;2054038;27;2746099;-75
2024/03/01 01:07:58;;;;;;;;;2.17;1.00;;;;;9.57;68.05;100529.81;2054328;27;2744117;-75
2024/03/01 01:09:11;;;;;;;;;1.00;1.00;;;;;9.56;68.08;100523.69;2038380;27;2731519;-75
2024/03/01 01:10:24;;;;;;;;;1.67;1.67;;;;;9.53;68.35;100522.97;2061916;27;2737761;-75
2024/03/01 01:11:38;;;;;;;;;1.00;1.00;;;;;9.53;68.38;100525.56;2053400;28;2733615;-75
2024/03/01 01:12:51;;;;;;;;;1.00;1.00;;;;;9.52;68.27;100526.47;2050794;28;2741932;-76
2024/03/01 01:14:04;;;;;;;;;4.00;3.00;;;;;9.43;67.73;100517.97;2054857;27;2730477;-75
2024/03/01 01:15:17;;;;;;;;;1.67;1.67;;;;;9.49;67.56;100537.91;2030712;28;2733639;-75
2024/03/01 01:16:30;;;;;;;;;1.00;1.00;;;;;9.43;68.28;100533.72;2063710;27;2730474;-75
2024/03/01 01:17:44;;;;;;;;;1.33;1.00;;;;;9.38;68.35;100529.53;2069302;27;2740199;-75
2024/03/01 01:18:57;;;;;;;;;1.00;1.00;;;;;9.36;68.46;100526.13;2061525;27;2735710;-76
2024/03/01 01:20:11;;;;;;;;;1.50;1.00;;;;;9.38;68.81;100530.41;2054717;28;2726338;-75
2024/03/01 01:21:24;;;;;;;;;1.00;1.00;;;;;9.36;68.62;100534.81;2057094;27;2742965;-75
2024/03/01 01:22:37;;;;;;;;;1.00;1.00;;;;;9.36;69.08;100534.81;2060225;27;2734665;-77
2024/03/01 01:23:50;;;;;;;;;2.67;1.00;;;;;9.33;67.65;100533.16;2053297;27;2735695;-76
2024/03/01 01:25:04;;;;;;;;;1.00;1.00;;;;;9.33;68.53;100542.81;2059488;27;2735686;-77
2024/03/01 01:26:17;;;;;;;;;1.17;1.00;;;;;9.24;68.73;100528.19;2061924;27;2739856;-77
2024/03/01 01:27:30;;;;;;;;;1.67;1.00;;;;;9.33;69.06;100548.03;2054291;27;2737121;-77
2024/03/01 01:28:44;;;;;;;;;1.00;1.00;;;;;9.29;68.67;100539.41;2053613;28;2733603;-77
2024/03/01 01:29:57;;;;;;;;;1.33;1.33;;;;;9.23;68.45;100537.81;2060716;27;2733662;-77
2024/03/01 01:31:10;;;;;;;;;1.00;1.00;;;;;9.26;68.44;100546.53;2059948;27;2737812;-77
2024/03/01 01:32:23;;;;;;;;;1.33;1.33;;;;;9.20;68.28;100548.41;2031607;27;2734652;-77
2024/03/01 01:33:36;;;;;;;;;1.00;1.00;;;;;9.21;68.73;100555.38;2055042;27;2741962;-76
2024/03/01 01:34:50;;;;;;;;;1.50;1.00;;;;;9.21;69.04;100554.53;2054205;27;2739892;-77
2024/03/01 01:36:03;;;;;;;;;1.50;1.00;;;;;9.18;69.14;100552.00;2054222;27;2737786;-76
2024/03/01 01:37:16;;;;;;;;;1.00;1.00;;;;;9.17;68.98;100556.38;2037769;27;2740926;-76
2024/03/01 01:38:30;;;;;;;;;1.00;1.00;;;;;9.16;69.05;100552.03;2054298;28;2729471;-76
2024/03/01 01:39:43;;;;;;;;;1.17;1.17;;;;;9.14;69.29;100548.59;2052898;27;2739845;-77
2024/03/01 01:40:56;;;;;;;;;2.00;1.00;;;;;9.10;68.84;100546.97;2054860;27;2725262;-76
2024/03/01 01:42:10;;;;;;;;;1.00;1.00;;;;;9.16;69.23;100548.56;2030058;27;2738853;-76
2024/03/01 01:43:23;;;;;;;;;1.83;1.00;;;;;9.20;68.97;100558.91;2052452;27;2741924;-76
2024/03/01 01:44:36;;;;;;;;;1.33;1.33;;;;;9.23;69.33;100563.22;2047982;27;2744019;-76
2024/03/01 01:45:50;;;;;;;;;2.00;1.00;;;;;9.20;69.05;100560.66;2057926;27;2735710;-76
2024/03/01 01:47:03;;;;;;;;;2.00;2.00;;;;;9.23;69.21;100555.34;2037263;27;2736741;-76
2024/03/01 01:48:16;;;;;;;;;0.00;0.00;;;;;9.16;69.07;100545.94;2052565;28;2736715;-76
2024/03/01 01:49:29;;;;;;;;;0.83;0.83;;;;;9.18;69.39;100552.00;2030688;28;2733618;-76
2024/03/01 01:50:42;;;;;;;;;2.00;1.00;;;;;9.16;69.45;100546.78;2056795;27;2736719;-77
2024/03/01 01:51:56;;;;;;;;;2.67;1.83;;;;;9.15;69.28;100534.59;2038519;27;2744023;-77
2024/03/01 01:53:10;;;;;;;;;1.00;1.00;;;;;9.17;69.48;100538.00;2055070;27;2727389;-77
2024/03/01 01:54:24;;;;;;;;;1.17;1.00;;;;;9.25;69.24;100547.41;2056363;27;2742966;-77
2024/03/01 01:55:37;;;;;;;;;0.67;0.00;;;;;9.26;69.39;100543.91;2039003;27;2726339;-76
2024/03/01 01:56:51;;;;;;;;;1.67;1.00;;;;;9.27;69.61;100553.47;2061491;27;2734684;-77
2024/03/01 01:58:04;;;;;;;;;1.17;1.17;;;;;9.26;69.66;100538.66;2055949;27;2738798;-76
2024/03/01 01:59:18;;;;;;;;;2.00;1.17;;;;;9.25;69.59;100531.69;2037231;27;2741971;-76
2024/03/01 02:00:33;;;;;;;;;1.00;1.00;;;;;9.25;69.41;100532.53;2046071;28;2746106;-77
2024/03/01 02:01:46;;;;;;;;;1.00;1.00;;;;;9.23;69.16;100529.13;2031947;27;2730973;-76
2024/03/01 02:02:59;;;;;;;;;2.83;1.00;;;;;9.27;69.40;100533.34;2060719;27;2746110;-77
2024/03/01 02:04:13;;;;;;;;;3.00;1.17;;;;;9.29;69.56;100538.53;2037631;27;2737784;-77
2024/03/01 02:05:26;;;;;;;;;1.00;1.00;;;;;9.34;69.56;100541.88;2061771;27;2735677;-77
2024/03/01 02:06:44;;;;;;;;;2.00;2.00;;;;;9.33;69.44;100534.94;2054260;27;2734661;-76
2024/03/01 02:07:57;;;;;;;;;2.00;2.00;;;;;9.34;69.75;100539.25;2053809;27;2738260;-76
2024/03/01 02:09:17;;;;;;;;;1.67;1.67;;;;;9.33;69.44;100534.94;2053168;27;2741951;-76
2024/03/01 02:10:31;;;;;;;;;2.00;1.00;;;;;9.34;69.30;100534.88;2062028;27;2736743;-76
2024/03/01 02:11:44;;;;;;;;;1.33;1.33;;;;;9.29;69.43;100530.66;2038533;27;2736751;-77
2024/03/01 02:13:02;;;;;;;;;2.83;1.83;;;;;9.31;69.28;100521.00;2053248;27;2746145;-77
2024/03/01 02:14:15;;;;;;;;;1.83;1.83;;;;;9.38;69.64;100529.53;2030758;27;2742966;-77
2024/03/01 02:15:29;;;;;;;;;3.67;2.00;;;;;9.36;69.33;100515.63;2052269;27;2736743;-76
2024/03/01 02:16:42;;;;;;;;;2.83;1.83;;;;;9.31;69.75;100507.91;2046240;28;2745057;-77
2024/03/01 02:17:57;;;;;;;;;1.67;1.67;;;;;9.39;69.47;100521.63;2022610;28;2739836;-77
2024/03/01 02:19:15;;;;;;;;;1.00;1.00;;;;;9.33;69.75;100501.66;2054197;27;2736053;-77
2024/03/01 02:20:30;;;;;;;;;2.00;2.00;;;;;9.33;69.94;100501.66;2054468;27;2737789;-77
2024/03/01 02:21:57;;;;;;;;;1.67;1.67;;;;;9.42;69.85;100504.91;2029812;27;2744014;-76
2024/03/01 02:23:20;;;;;;;;;2.00;2.00;;;;;9.34;69.77;100498.16;2035607;27;2735706;-76
2024/03/01 02:24:33;;;;;;;;;2.17;1.83;;;;;9.33;68.94;100491.19;2062379;27;2734649;-77
2024/03/01 02:25:46;;;;;;;;;1.00;1.00;;;;;9.41;69.94;100504.06;2060827;27;2732558;-77
2024/03/01 02:26:59;;;;;;;;;4.33;2.50;;;;;9.31;69.63;100487.75;2052165;27;2739895;-77
2024/03/01 02:28:13;;;;;;;;;2.00;1.00;;;;;9.30;69.67;100480.81;2030562;27;2737757;-78
2024/03/01 02:29:26;;;;;;;;;3.00;2.50;;;;;9.35;69.62;100491.16;2058794;27;2734656;-77
2024/03/01 02:30:39;;;;;;;;;2.17;2.17;;;;;9.31;70.32;100487.75;2061875;27;2734648;-76
2024/03/01 02:31:52;;;;;;;;;2.83;1.00;;;;;9.30;69.48;100475.56;2061723;27;2736724;-76
2024/03/01 02:33:05;;;;;;;;;3.17;1.33;;;;;9.28;69.72;100480.00;2060384;27;2729435;-77
2024/03/01 02:34:19;;;;;;;;;2.00;1.17;;;;;9.32;70.09;100483.38;2052933;27;2739861;-77
2024/03/01 02:35:32;;;;;;;;;2.00;2.00;;;;;9.32;69.73;100484.22;2053209;27;2735682;-76
2024/03/01 02:36:45;;;;;;;;;2.33;1.67;;;;;9.33;69.85;100479.84;2055834;27;2738847;-77
2024/03/01 02:37:59;;;;;;;;;4.50;3.00;;;;;9.27;69.45;100475.66;2052288;28;2754486;-76
2024/03/01 02:39:16;;;;;;;;;2.00;2.00;;;;;9.22;69.98;100470.56;2035354;27;2731519;-77
2024/03/01 02:40:30;;;;;;;;;4.33;2.00;;;;;9.22;70.16;100460.06;2053982;27;2734720;-76
2024/03/01 02:41:47;;;;;;;;;3.17;1.83;;;;;9.25;69.98;100469.59;2063070;27;2722138;-77
2024/03/01 02:43:00;;;;;;;;;3.67;1.00;;;;;9.17;70.12;100454.09;2056195;27;2741979;-77
2024/03/01 02:44:14;;;;;;;;;2.50;2.50;;;;;9.22;70.00;100460.06;2061102;27;2752341;-77
2024/03/01 02:45:27;;;;;;;;;3.00;3.00;;;;;9.22;69.74;100457.44;2042680;27;2747139;-76
2024/03/01 02:46:40;;;;;;;;;2.17;2.00;;;;;9.20;69.74;100459.25;2057175;27;2737861;-77
2024/03/01 02:47:54;;;;;;;;;5.50;3.17;;;;;9.21;69.85;100465.38;2029297;28;2754423;-76
2024/03/01 02:49:07;;;;;;;;;2.50;2.00;;;;;9.16;70.13;100455.00;2054328;27;2736723;-76
2024/03/01 02:50:20;;;;;;;;;4.00;3.00;;;;;9.18;69.86;100461.06;2059848;27;2748229;-76
2024/03/01 02:51:34;;;;;;;;;4.50;3.83;;;;;9.13;69.88;100446.38;2053637;27;2737799;-76
2024/03/01 02:52:47;;;;;;;;;3.00;3.00;;;;;9.10;69.99;100444.72;2062299;27;2748551;-77
2024/03/01 02:54:00;;;;;;;;;3.67;3.00;;;;;9.14;69.66;100454.19;2032033;27;2754458;-77
2024/03/01 02:55:20;;;;;;;;;4.33;3.67;;;;;9.10;69.96;100447.34;2028810;28;2751342;-77
2024/03/01 02:56:33;;;;;;;;;2.83;2.83;;;;;9.05;69.97;100438.75;2037472;27;2754423;-77
2024/03/01 02:57:51;;;;;;;;;4.00;2.50;;;;;9.07;69.86;100436.94;2037332;27;2752345;-76
2024/03/01 02:59:04;;;;;;;;;2.83;2.83;;;;;9.02;69.75;100433.59;2038242;27;2750265;-76
2024/03/01 03:00:18;;;;;;;;;5.17;4.00;;;;;9.03;69.94;100436.19;2036224;27;2751325;-76
2024/03/01 03:01:32;;;;;;;;;1.83;1.83;;;;;9.03;70.14;100427.47;2030521;27;2730528;-76
2024/03/01 03:02:46;;;;;;;;;3.33;2.50;;;;;9.06;69.87;100437.88;2059743;27;2743515;-76
2024/03/01 03:03:59;;;;;;;;;4.00;4.00;;;;;8.95;69.88;100420.69;2059886;27;2749228;-76
2024/03/01 03:05:12;;;;;;;;;2.33;2.33;;;;;9.02;70.06;100439.72;2060348;27;2752899;-76
2024/03/01 03:06:26;;;;;;;;;4.50;2.33;;;;;8.98;70.38;100438.09;2037864;27;2746098;-77
2024/03/01 03:07:39;;;;;;;;;3.00;3.00;;;;;9.03;70.49;100445.81;2037048;27;2735693;-77
2024/03/01 03:08:52;;;;;;;;;5.33;3.33;;;;;9.00;69.97;100450.25;2028461;27;2754457;-76
2024/03/01 03:10:06;;;;;;;;;3.00;2.33;;;;;8.96;69.85;100438.13;2058324;27;2750301;-76
2024/03/01 03:11:20;;;;;;;;;3.00;3.00;;;;;8.92;69.83;100443.50;2029310;27;2754839;-76
2024/03/01 03:12:33;;;;;;;;;2.67;2.33;;;;;8.88;70.29;100438.38;2029362;27;2748544;-76
2024/03/01 03:13:48;;;;;;;;;3.33;2.83;;;;;8.97;70.17;100452.09;2053226;27;2746480;-77
2024/03/01 03:15:07;;;;;;;;;3.00;2.00;;;;;8.91;70.04;100442.69;2053417;27;2735687;-77
2024/03/01 03:16:21;;;;;;;;;2.00;2.00;;;;;8.92;70.36;100449.63;2052968;27;2748186;-77
2024/03/01 03:17:35;;;;;;;;;1.67;1.67;;;;;8.94;70.06;100450.44;2036533;27;2737773;-77
2024/03/01 03:18:48;;;;;;;;;2.50;2.50;;;;;8.91;70.18;100452.31;2029957;27;2731523;-77
2024/03/01 03:20:09;;;;;;;;;3.00;2.67;;;;;8.88;69.96;100450.63;2036212;27;2744059;-77
2024/03/01 03:21:23;;;;;;;;;3.00;2.00;;;;;8.92;70.06;100454.88;2029960;28;2733045;-77
2024/03/01 03:22:43;;;;;;;;;2.00;2.00;;;;;8.87;69.85;100451.53;2060361;27;2731522;-76
2024/03/01 03:23:56;;;;;;;;;3.00;2.00;;;;;8.83;70.07;100450.78;2059656;27;2729441;-77
2024/03/01 03:25:09;;;;;;;;;3.50;1.83;;;;;8.83;69.83;100450.78;2055521;27;2732608;-76
2024/03/01 03:26:22;;;;;;;;;1.83;1.83;;;;;8.78;70.25;100450.06;2054667;27;2746144;-76
2024/03/01 03:27:35;;;;;;;;;2.00;2.00;;;;;8.76;70.13;100444.88;2060216;27;2749232;-77
2024/03/01 03:28:49;;;;;;;;;1.83;1.83;;;;;8.81;70.11;100460.44;2061962;27;2736722;-77
2024/03/01 03:30:02;;;;;;;;;3.00;3.00;;;;;8.83;70.23;100466.50;2061228;27;2734676;-77
2024/03/01 03:31:15;;;;;;;;;3.00;3.00;;;;;8.81;70.20;100463.06;2061283;27;2750643;-77
2024/03/01 03:32:28;;;;;;;;;3.00;2.00;;;;;8.73;70.03;100450.19;2037432;27;2735678;-77
2024/03/01 03:33:42;;;;;;;;;2.00;2.00;;;;;8.75;70.05;100461.47;2057905;27;2742474;-76
2024/03/01 03:34:55;;;;;;;;;4.00;2.50;;;;;8.68;70.25;100446.84;2036723;27;2735694;-76
2024/03/01 03:36:08;;;;;;;;;2.83;2.83;;;;;8.74;70.11;100464.16;2037076;27;2752332;-77
2024/03/01 03:37:21;;;;;;;;;4.50;4.50;;;;;8.69;70.28;100452.94;2045645;28;2738830;-76
2024/03/01 03:38:35;;;;;;;;;2.50;2.17;;;;;8.74;70.09;100467.59;2050071;27;2748189;-76
2024/03/01 03:39:48;;;;;;;;;4.17;1.33;;;;;8.71;70.29;100465.09;2035952;27;2725262;-76
2024/03/01 03:41:01;;;;;;;;;3.33;3.33;;;;;8.76;70.16;100471.06;2028490;28;2749275;-77
2024/03/01 03:42:14;;;;;;;;;4.50;2.50;;;;;8.73;70.36;100460.66;2055823;27;2729436;-77
2024/03/01 03:43:27;;;;;;;;;2.67;2.00;;;;;8.74;70.56;100465.00;2054525;27;2746475;-77
2024/03/01 03:44:41;;;;;;;;;2.00;2.00;;;;;8.65;70.28;100446.94;2060030;27;2741971;-77
2024/03/01 03:45:54;;;;;;;;;3.33;2.33;;;;;8.66;70.33;100467.00;2030430;28;2733602;-77
2024/03/01 03:47:07;;;;;;;;;4.17;3.50;;;;;8.65;70.00;100466.13;2057960;27;2754427;-76
2024/03/01 03:48:20;;;;;;;;;2.00;2.00;;;;;8.66;70.33;100472.25;2056380;27;2739864;-77
2024/03/01 03:49:36;;;;;;;;;3.17;1.33;;;;;8.68;70.40;100475.66;2036924;27;2730536;-77
2024/03/01 03:50:49;;;;;;;;;2.17;2.17;;;;;8.71;70.24;100483.44;2053936;27;2735704;-76
2024/03/01 03:52:03;;;;;;;;;3.67;3.67;;;;;8.63;70.57;100467.94;2052148;27;2750309;-76
2024/03/01 03:53:17;;;;;;;;;4.00;3.33;;;;;8.66;70.02;100473.09;2028341;27;2746102;-77
2024/03/01 03:54:31;;;;;;;;;5.00;3.00;;;;;8.65;70.49;100479.22;2051119;28;2737770;-77
2024/03/01 03:55:44;;;;;;;;;3.00;2.67;;;;;8.69;70.88;100476.53;2053211;27;2750276;-76
2024/03/01 03:56:58;;;;;;;;;4.67;3.00;;;;;8.69;70.70;100481.78;2052665;27;2748176;-77
2024/03/01 03:58:11;;;;;;;;;3.83;2.83;;;;;8.59;70.87;100468.09;2052230;27;2737816;-76
2024/03/01 03:59:24;;;;;;;;;3.83;3.50;;;;;8.62;70.37;100470.59;2029297;27;2748170;-76
2024/03/01 04:00:37;;;;;;;;;4.67;2.00;;;;;8.64;70.78;100477.50;2036565;27;2751309;-77
2024/03/01 04:01:51;;;;;;;;;3.00;3.00;;;;;8.66;70.95;100480.97;2028745;27;2738831;-77
2024/03/01 04:03:04;;;;;;;;;2.00;2.00;;;;;8.68;70.99;100472.19;2030415;27;2740214;-77
2024/03/01 04:04:17;;;;;;;;;2.50;2.33;;;;;8.60;70.64;100459.31;2052244;27;2739849;-76
2024/03/01 04:05:30;;;;;;;;;5.00;2.50;;;;;8.60;70.74;100461.91;2036910;27;2746130;-76
2024/03/01 04:06:44;;;;;;;;;3.00;2.33;;;;;8.61;70.54;100461.91;2029453;27;2752370;-76
2024/03/01 04:07:57;;;;;;;;;3.33;2.00;;;;;8.58;70.38;100461.97;2049108;27;2746467;-76
2024/03/01 04:09:10;;;;;;;;;2.67;1.50;;;;;8.61;70.45;100471.50;2037057;27;2741990;-76
2024/03/01 04:10:24;;;;;;;;;2.83;2.00;;;;;8.61;70.68;100479.38;2060541;27;2737804;-76
2024/03/01 04:11:40;;;;;;;;;2.50;2.50;;;;;8.51;70.71;100460.41;2052382;27;2754423;-76
2024/03/01 04:12:53;;;;;;;;;2.83;2.50;;;;;8.64;70.68;100481.91;2028033;27;2744031;-77
2024/03/01 04:14:10;;;;;;;;;3.50;2.00;;;;;8.60;70.60;100486.38;2052777;27;2751302;-77
2024/03/01 04:15:23;;;;;;;;;3.17;2.00;;;;;8.53;70.41;100467.31;2054146;27;2736754;-77
2024/03/01 04:16:37;;;;;;;;;2.00;2.00;;;;;8.49;70.22;100465.69;2028416;28;2729439;-77
2024/03/01 04:17:50;;;;;;;;;3.83;3.67;;;;;8.54;70.64;100476.03;2057254;27;2754459;-77
2024/03/01 04:19:08;;;;;;;;;3.00;3.00;;;;;8.57;70.55;100478.56;2035709;27;2736764;-76
2024/03/01 04:20:21;;;;;;;;;2.00;2.00;;;;;8.54;70.67;100465.56;2037539;27;2732568;-77
2024/03/01 04:21:37;;;;;;;;;3.00;2.00;;;;;8.58;70.23;100471.56;2059782;27;2732549;-76
2024/03/01 04:22:50;;;;;;;;;3.67;2.00;;;;;8.51;70.24;100463.91;2052084;27;2733630;-76
2024/03/01 04:24:08;;;;;;;;;1.67;1.67;;;;;8.48;70.62;100466.59;2057113;27;2742992;-77
2024/03/01 04:25:23;;;;;;;;;3.17;2.00;;;;;8.47;70.28;100467.47;2061476;27;2730494;-77
2024/03/01 04:26:37;;;;;;;;;1.83;1.67;;;;;8.50;70.36;100472.63;2038238;27;2735678;-77
2024/03/01 04:27:50;;;;;;;;;4.50;2.33;;;;;8.44;69.70;100465.81;2061295;27;2734722;-76
2024/03/01 04:29:03;;;;;;;;;2.83;1.83;;;;;8.51;70.35;100482.22;2047016;28;2741968;-76
2024/03/01 04:30:16;;;;;;;;;2.00;1.67;;;;;8.49;70.16;100473.56;2053132;27;2742977;-76
2024/03/01 04:31:30;;;;;;;;;3.50;1.50;;;;;8.46;70.43;100478.88;2028379;27;2744063;-77
2024/03/01 04:32:43;;;;;;;;;5.17;2.00;;;;;8.51;70.10;100481.38;2030239;27;2743009;-77
2024/03/01 04:33:56;;;;;;;;;1.83;1.83;;;;;8.48;70.43;100484.94;2035334;27;2746105;-76
2024/03/01 04:35:09;;;;;;;;;1.00;1.00;;;;;8.45;70.17;100479.75;2049886;27;2738815;-76
2024/03/01 04:36:23;;;;;;;;;2.00;1.17;;;;;8.39;70.10;100466.84;2051963;27;2741982;-76
2024/03/01 04:37:36;;;;;;;;;3.33;1.00;;;;;8.47;69.92;100482.38;2052724;27;2738807;-77
2024/03/01 04:38:49;;;;;;;;;3.33;2.00;;;;;8.42;70.34;100483.31;2054057;27;2735678;-76
2024/03/01 04:40:05;;;;;;;;;1.83;0.83;;;;;8.37;70.27;100473.91;2052851;27;2736755;-76
2024/03/01 04:41:21;;;;;;;;;2.17;1.00;;;;;8.36;70.47;100467.81;2059347;27;2740918;-76
2024/03/01 04:42:36;;;;;;;;;1.67;1.67;;;;;8.45;70.49;100487.63;2053851;27;2731578;-77
2024/03/01 04:43:49;;;;;;;;;2.50;2.33;;;;;8.39;70.76;100475.59;2053145;27;2744008;-77
2024/03/01 04:45:07;;;;;;;;;3.17;2.17;;;;;8.50;70.56;100501.47;2052967;27;2741967;-76
2024/03/01 04:46:20;;;;;;;;;2.00;2.00;;;;;8.48;70.52;100484.94;2053149;27;2742313;-76
2024/03/01 04:47:33;;;;;;;;;2.83;2.00;;;;;8.49;70.66;100485.78;2035843;27;2735706;-76
2024/03/01 04:48:47;;;;;;;;;4.50;3.00;;;;;8.47;70.39;100477.97;2058630;27;2731527;-76
2024/03/01 04:50:01;;;;;;;;;2.67;2.67;;;;;8.48;70.40;100477.06;2029158;28;2752347;-76
2024/03/01 04:51:14;;;;;;;;;1.33;1.33;;;;;8.54;70.51;100481.28;2053423;27;2731540;-76
2024/03/01 04:52:27;;;;;;;;;2.50;1.83;;;;;8.43;70.56;100461.50;2053458;27;2737770;-76
2024/03/01 04:53:41;;;;;;;;;2.33;2.33;;;;;8.46;70.46;100464.91;2061492;27;2727349;-76
2024/03/01 04:54:54;;;;;;;;;1.33;1.33;;;;;8.47;70.43;100466.66;2052435;27;2744569;-76
2024/03/01 04:56:11;;;;;;;;;1.17;1.17;;;;;8.47;70.07;100464.84;2032662;27;2736744;-76
2024/03/01 04:57:24;;;;;;;;;3.33;2.00;;;;;8.53;69.78;100479.56;2060621;27;2737812;-77
2024/03/01 04:58:38;;;;;;;;;3.83;2.00;;;;;8.50;70.65;100472.63;2060461;27;2735708;-76
2024/03/01 04:59:51;;;;;;;;;3.00;3.00;;;;;8.43;69.93;100455.38;2060520;27;2739886;-76
2024/03/01 05:01:04;;;;;;;;;1.67;1.67;;;;;8.55;70.02;100476.00;2060633;27;2734672;-76
2024/03/01 05:02:17;;;;;;;;;2.50;1.17;;;;;8.52;70.40;100468.22;2030017;27;2736742;-77
2024/03/01 05:03:31;;;;;;;;;2.00;2.00;;;;;8.48;70.21;100457.88;2054804;27;2746114;-76
2024/03/01 05:04:44;;;;;;;;;4.17;2.33;;;;;8.48;70.03;100445.63;2036375;27;2741976;-77
2024/03/01 05:05:58;;;;;;;;;1.00;1.00;;;;;8.53;69.98;100455.97;2052654;28;2738829;-77
2024/03/01 05:07:11;;;;;;;;;3.17;2.33;;;;;8.46;70.07;100454.44;2052732;28;2734672;-76
2024/03/01 05:08:25;;;;;;;;;4.67;2.00;;;;;8.49;69.62;100457.84;2029451;28;2725294;-76
2024/03/01 05:09:38;;;;;;;;;3.67;2.50;;;;;8.51;70.19;100461.28;2053737;27;2744019;-76
2024/03/01 05:10:51;;;;;;;;;2.50;2.50;;;;;8.59;70.10;100465.47;2060479;27;2734667;-76
2024/03/01 05:12:05;;;;;;;;;2.83;2.83;;;;;8.51;69.76;100456.03;2057846;27;2752402;-76
2024/03/01 05:13:19;;;;;;;;;2.50;2.00;;;;;8.50;69.61;100449.06;2033818;27;2738818;-76
2024/03/01 05:14:32;;;;;;;;;4.00;2.17;;;;;8.55;70.13;100459.41;2061320;27;2738324;-76
2024/03/01 05:15:46;;;;;;;;;5.67;3.33;;;;;8.61;70.19;100459.28;2057663;27;2754496;-76
2024/03/01 05:16:59;;;;;;;;;3.33;2.83;;;;;8.61;69.67;100459.28;2057481;27;2752828;-76
2024/03/01 05:18:12;;;;;;;;;3.00;2.00;;;;;8.60;69.84;100446.19;2032933;27;2735694;-76
2024/03/01 05:19:25;;;;;;;;;5.00;2.00;;;;;8.52;69.84;100436.78;2054345;27;2731530;-76
2024/03/01 05:20:39;;;;;;;;;3.00;3.00;;;;;8.57;70.00;100438.44;2059874;27;2746129;-76
2024/03/01 05:21:52;;;;;;;;;3.67;3.17;;;;;8.57;70.28;100441.88;2035425;27;2754439;-76
2024/03/01 05:23:06;;;;;;;;;3.67;2.67;;;;;8.58;69.64;100432.25;2037113;27;2749723;-77
2024/03/01 05:24:19;;;;;;;;;3.33;3.33;;;;;8.58;69.91;100440.13;2035879;27;2739860;-76
2024/03/01 05:25:32;;;;;;;;;3.00;3.00;;;;;8.61;69.54;100446.19;2051185;28;2741956;-76
2024/03/01 05:26:45;;;;;;;;;2.50;2.50;;;;;8.54;69.66;100424.47;2028058;28;2737846;-76
2024/03/01 05:27:59;;;;;;;;;3.00;3.00;;;;;8.66;69.51;100444.28;2049243;27;2748684;-76
2024/03/01 05:29:14;;;;;;;;;3.33;3.33;;;;;8.59;70.07;100427.03;2028861;27;2750289;-76
2024/03/01 05:30:27;;;;;;;;;3.00;3.00;;;;;8.59;69.05;100426.16;2060166;27;2747156;-76
2024/03/01 05:31:47;;;;;;;;;4.00;2.00;;;;;8.64;69.78;100435.59;2031270;27;2746162;-76
2024/03/01 05:33:01;;;;;;;;;4.83;4.17;;;;;8.62;69.42;100434.78;2051534;27;2754450;-76
2024/03/01 05:34:15;;;;;;;;;4.33;2.00;;;;;8.57;69.72;100425.31;2034486;27;2737828;-76
2024/03/01 05:35:28;;;;;;;;;2.50;2.00;;;;;8.65;69.30;100428.59;2052185;27;2736732;-76
2024/03/01 05:36:41;;;;;;;;;2.83;2.83;;;;;8.62;69.59;100428.66;2058217;27;2737837;-76
2024/03/01 05:37:58;;;;;;;;;2.00;2.00;;;;;8.54;69.39;100424.47;2052788;28;2739884;-76
2024/03/01 05:39:18;;;;;;;;;2.33;1.83;;;;;8.58;69.38;100419.16;2029302;28;2739956;-76